Alledonia, Ohio
Current Conditions -  °F | °C
As of 4:53 PM on Friday 31 Oct 2014 (Local Time) from KHLG Reporting Station
Light Rain Light Rain  
Wind Chill: 43°   Ceiling: 4900
Heat Index: 43°   Visibility: 10mi
Dew Point: 39°   Wind: 0mph
Humidity: 86%   Direction: NA
Pressure: 29.85"   Gusts: NA
Location:  39.9°N, 80.97°W
Report Text: KHLG 312053Z 00000KT 10SM -RA FEW034 OVC049 06/04 A2985 RMK AO2 SLP118 P0001 60002 T00610039 55009
Loading
Personal Weather Stations






























Interactive Weather Map
Tropical Storm Tracking
New forecast layout! Learn more

10-Day Weather Forecast

Advertisements
Track Severe Weather on mobile